map of JUL home
JUL - Airport
Location
City:  Juliaca, Puno, Perú
Name:Inca Manco Cápac International Airport
ICAO:SPJL
IATA:JUL

Details
Type:Airport (Aerodrome, Airfield)
Use:Public/Civil, International (customs port of entry)
Latitude:15°28'01"S (-15.466855)
Longitude:70°09'28"W (-70.157882)
Elevation:12552 ft (3826 m)
Variation:6.70°W (WMM2015 magnetic declination)
-0.19° annual change
Runways:1
Longest:13780 × 148 ft (4200 × 45 m), paved

Time
Time Zone:UTC-5
Local Time:

Weather
METAR:SPJL 191300Z 23003KT 9999 SCT015 BKN065 11/M02 Q1036 RMK PP000
TAF:SPJL 191120Z 1912/2012 15004KT 9999 SCT012 BKN080 TX16/1919Z TN06/2010Z
FM191800 09010KT 9999 SCT020 SCT100
TEMPO 1921/1923 BKN020
FM200000 04005KT 8000 SCT015 SCT080

Related Locations
Nearby:
Farthest:VCL: 12373 mi / 19913 km
Chu Lai [Intl], VN

Find:

   beyond  
but within

Other Information
Maps:
NOTAMs:
Links:
Sources:

  
  • flag of Perú
  • flag of Puno
  

Sectional Chart

Flight Planning
at skyvector.com

Satellite Image

Google Maps Satellite view

 

Copyright © 2004-2018 Karl L. Swartz. All rights reserved.
The Great Circle Mapper name and logo are trademarks of the Great Circle Mapper.
All other trademarks mentioned herein belong to their respective owners.
Please see credits for attibutions and further copyright information.

  Follow gcmap on Facebook Follow gcmap on Twitter Follow gcmap on Google+ GCmap on LinkedIn

hCard Microformat

Geo Microformat